sensor_id;sensor_type;location;lat;lon;timestamp;temperature;humidity
46335;DHT22;32051;48.882;9.210;2023-06-14T11:50:20;31.50;53.90
46335;DHT22;32051;48.882;9.210;2023-06-14T11:52:53;31.70;55.60
46335;DHT22;32051;48.882;9.210;2023-06-14T11:55:19;31.90;52.80
46335;DHT22;32051;48.882;9.210;2023-06-14T11:57:46;31.80;52.90
46335;DHT22;32051;48.882;9.210;2023-06-14T12:00:12;31.50;54.10
46335;DHT22;32051;48.882;9.210;2023-06-14T12:02:40;31.90;53.10
46335;DHT22;32051;48.882;9.210;2023-06-14T12:05:07;32.50;55.90
46335;DHT22;32051;48.882;9.210;2023-06-14T12:07:38;32.90;52.60
46335;DHT22;32051;48.882;9.210;2023-06-14T12:10:09;33.50;52.80
46335;DHT22;32051;48.882;9.210;2023-06-14T12:12:38;33.90;51.50
46335;DHT22;32051;48.882;9.210;2023-06-14T12:15:05;34.20;50.30
46335;DHT22;32051;48.882;9.210;2023-06-14T12:17:35;34.30;50.60
46335;DHT22;32051;48.882;9.210;2023-06-14T12:22:36;34.50;50.20
46335;DHT22;32051;48.882;9.210;2023-06-14T12:25:04;34.70;50.20
46335;DHT22;32051;48.882;9.210;2023-06-14T12:27:29;35.10;50.50
46335;DHT22;32051;48.882;9.210;2023-06-14T12:30:00;35.20;48.80
46335;DHT22;32051;48.882;9.210;2023-06-14T12:32:26;35.50;50.90
46335;DHT22;32051;48.882;9.210;2023-06-14T12:34:52;35.80;49.10
46335;DHT22;32051;48.882;9.210;2023-06-14T12:39:44;35.80;49.00
46335;DHT22;32051;48.882;9.210;2023-06-14T12:42:09;35.80;48.10
46335;DHT22;32051;48.882;9.210;2023-06-14T12:44:36;35.80;49.90
46335;DHT22;32051;48.882;9.210;2023-06-14T12:47:06;35.80;48.80
46335;DHT22;32051;48.882;9.210;2023-06-14T12:49:33;35.80;49.10
46335;DHT22;32051;48.882;9.210;2023-06-14T12:51:58;34.60;49.00
46335;DHT22;32051;48.882;9.210;2023-06-14T12:54:24;34.00;49.40
46335;DHT22;32051;48.882;9.210;2023-06-14T12:56:51;34.00;49.80
46335;DHT22;32051;48.882;9.210;2023-06-14T12:59:18;34.20;49.80
46335;DHT22;32051;48.882;9.210;2023-06-14T13:04:10;34.60;49.30
46335;DHT22;32051;48.882;9.210;2023-06-14T13:06:36;34.80;50.70
46335;DHT22;32051;48.882;9.210;2023-06-14T13:09:02;35.20;49.20
46335;DHT22;32051;48.882;9.210;2023-06-14T13:11:31;35.40;48.60
46335;DHT22;32051;48.882;9.210;2023-06-14T13:13:57;35.40;49.00
46335;DHT22;32051;48.882;9.210;2023-06-14T13:16:23;34.50;48.50
46335;DHT22;32051;48.882;9.210;2023-06-14T13:18:48;33.50;49.40
46335;DHT22;32051;48.882;9.210;2023-06-14T13:21:14;33.40;50.40
46335;DHT22;32051;48.882;9.210;2023-06-14T13:23:40;33.50;50.00
46335;DHT22;32051;48.882;9.210;2023-06-14T13:26:06;34.00;50.10
46335;DHT22;32051;48.882;9.210;2023-06-14T13:28:31;34.50;48.60
46335;DHT22;32051;48.882;9.210;2023-06-14T13:30:58;34.70;49.00
46335;DHT22;32051;48.882;9.210;2023-06-14T13:33:23;35.00;48.30
46335;DHT22;32051;48.882;9.210;2023-06-14T13:35:50;34.30;48.70
46335;DHT22;32051;48.882;9.210;2023-06-14T13:38:18;33.40;49.30
46335;DHT22;32051;48.882;9.210;2023-06-14T13:40:43;32.60;50.20
46335;DHT22;32051;48.882;9.210;2023-06-14T14:02:40;33.30;50.00
46335;DHT22;32051;48.882;9.210;2023-06-14T14:05:06;33.30;50.00
46335;DHT22;32051;48.882;9.210;2023-06-14T14:07:32;33.90;49.60
46335;DHT22;32051;48.882;9.210;2023-06-14T14:09:57;34.10;49.40
46335;DHT22;32051;48.882;9.210;2023-06-14T14:12:23;33.50;49.80
46335;DHT22;32051;48.882;9.210;2023-06-14T14:14:50;32.90;49.40
46335;DHT22;32051;48.882;9.210;2023-06-14T14:17:16;33.10;49.90
46335;DHT22;32051;48.882;9.210;2023-06-14T14:19:43;32.60;50.60
46335;DHT22;32051;48.882;9.210;2023-06-14T14:22:08;32.20;50.90
46335;DHT22;32051;48.882;9.210;2023-06-14T14:24:34;31.50;51.00
46335;DHT22;32051;48.882;9.210;2023-06-14T14:27:00;31.40;51.00
46335;DHT22;32051;48.882;9.210;2023-06-14T14:29:26;31.70;51.70
46335;DHT22;32051;48.882;9.210;2023-06-14T14:31:55;32.10;51.20
46335;DHT22;32051;48.882;9.210;2023-06-14T14:34:22;31.70;51.10
46335;DHT22;32051;48.882;9.210;2023-06-14T14:36:48;31.20;51.70
46335;DHT22;32051;48.882;9.210;2023-06-14T14:39:14;30.70;52.30
46335;DHT22;32051;48.882;9.210;2023-06-14T14:41:40;30.50;53.50
46335;DHT22;32051;48.882;9.210;2023-06-14T14:44:06;31.00;52.20
46335;DHT22;32051;48.882;9.210;2023-06-14T14:46:32;31.60;51.70
46335;DHT22;32051;48.882;9.210;2023-06-14T14:49:01;32.30;51.30
46335;DHT22;32051;48.882;9.210;2023-06-14T14:51:26;33.20;51.30
46335;DHT22;32051;48.882;9.210;2023-06-14T14:53:52;33.00;48.90
46335;DHT22;32051;48.882;9.210;2023-06-14T14:56:18;32.30;49.90
46335;DHT22;32051;48.882;9.210;2023-06-14T14:58:43;31.50;50.60
